sensor_id;sensor_type;location;lat;lon;timestamp;P1;durP1;ratioP1;P2;durP2;ratioP2
74102;SDS011;62853;46.166;3.640;2024-01-30T00:00:34;8.30;;;5.30;;
74102;SDS011;62853;46.166;3.640;2024-01-30T00:02:59;6.93;;;5.40;;
74102;SDS011;62853;46.166;3.640;2024-01-30T00:05:25;7.25;;;5.05;;
74102;SDS011;62853;46.166;3.640;2024-01-30T00:07:50;9.07;;;7.03;;
74102;SDS011;62853;46.166;3.640;2024-01-30T00:10:15;8.13;;;7.32;;
74102;SDS011;62853;46.166;3.640;2024-01-30T00:12:41;7.07;;;6.13;;
74102;SDS011;62853;46.166;3.640;2024-01-30T00:15:06;8.43;;;5.38;;
74102;SDS011;62853;46.166;3.640;2024-01-30T00:17:34;7.20;;;5.60;;
74102;SDS011;62853;46.166;3.640;2024-01-30T00:20:01;6.75;;;5.03;;
74102;SDS011;62853;46.166;3.640;2024-01-30T00:22:30;6.25;;;4.72;;
74102;SDS011;62853;46.166;3.640;2024-01-30T00:24:55;7.18;;;5.05;;
74102;SDS011;62853;46.166;3.640;2024-01-30T00:27:21;6.88;;;5.00;;
74102;SDS011;62853;46.166;3.640;2024-01-30T00:29:46;7.40;;;5.05;;
74102;SDS011;62853;46.166;3.640;2024-01-30T00:32:11;8.68;;;4.90;;
74102;SDS011;62853;46.166;3.640;2024-01-30T00:34:37;7.75;;;4.97;;
74102;SDS011;62853;46.166;3.640;2024-01-30T00:37:02;7.05;;;5.40;;
74102;SDS011;62853;46.166;3.640;2024-01-30T00:39:27;8.07;;;5.53;;
74102;SDS011;62853;46.166;3.640;2024-01-30T00:41:53;7.25;;;6.55;;
74102;SDS011;62853;46.166;3.640;2024-01-30T00:44:18;7.65;;;6.80;;
74102;SDS011;62853;46.166;3.640;2024-01-30T00:46:44;6.65;;;5.72;;
74102;SDS011;62853;46.166;3.640;2024-01-30T00:49:10;5.82;;;4.70;;
74102;SDS011;62853;46.166;3.640;2024-01-30T00:51:35;5.57;;;4.65;;
74102;SDS011;62853;46.166;3.640;2024-01-30T00:54:01;8.00;;;4.90;;
74102;SDS011;62853;46.166;3.640;2024-01-30T00:56:27;6.85;;;5.00;;
74102;SDS011;62853;46.166;3.640;2024-01-30T00:58:53;7.15;;;5.05;;
74102;SDS011;62853;46.166;3.640;2024-01-30T01:01:19;7.22;;;5.15;;
74102;SDS011;62853;46.166;3.640;2024-01-30T01:03:44;6.88;;;4.85;;
74102;SDS011;62853;46.166;3.640;2024-01-30T01:06:10;6.60;;;4.60;;
74102;SDS011;62853;46.166;3.640;2024-01-30T01:08:35;6.20;;;4.68;;
74102;SDS011;62853;46.166;3.640;2024-01-30T01:11:01;7.80;;;4.35;;
74102;SDS011;62853;46.166;3.640;2024-01-30T01:13:26;7.53;;;4.38;;
74102;SDS011;62853;46.166;3.640;2024-01-30T01:15:52;5.63;;;3.90;;
74102;SDS011;62853;46.166;3.640;2024-01-30T01:18:17;5.82;;;4.68;;
74102;SDS011;62853;46.166;3.640;2024-01-30T01:20:42;6.35;;;4.60;;
74102;SDS011;62853;46.166;3.640;2024-01-30T01:23:08;7.78;;;6.55;;
74102;SDS011;62853;46.166;3.640;2024-01-30T01:25:33;6.85;;;5.55;;
74102;SDS011;62853;46.166;3.640;2024-01-30T01:27:58;6.50;;;5.20;;
74102;SDS011;62853;46.166;3.640;2024-01-30T01:30:26;6.15;;;4.20;;
74102;SDS011;62853;46.166;3.640;2024-01-30T01:32:52;4.65;;;4.03;;
74102;SDS011;62853;46.166;3.640;2024-01-30T01:35:21;6.93;;;4.93;;
74102;SDS011;62853;46.166;3.640;2024-01-30T01:37:49;7.03;;;4.63;;
74102;SDS011;62853;46.166;3.640;2024-01-30T01:40:19;5.78;;;4.63;;
74102;SDS011;62853;46.166;3.640;2024-01-30T01:42:52;6.45;;;4.20;;
74102;SDS011;62853;46.166;3.640;2024-01-30T01:45:19;5.75;;;4.65;;
74102;SDS011;62853;46.166;3.640;2024-01-30T01:47:46;6.95;;;4.43;;
74102;SDS011;62853;46.166;3.640;2024-01-30T01:50:13;6.60;;;4.25;;
74102;SDS011;62853;46.166;3.640;2024-01-30T01:52:43;6.15;;;3.97;;
74102;SDS011;62853;46.166;3.640;2024-01-30T01:55:10;6.38;;;4.40;;
74102;SDS011;62853;46.166;3.640;2024-01-30T01:57:36;7.00;;;5.53;;
74102;SDS011;62853;46.166;3.640;2024-01-30T02:00:01;6.10;;;5.50;;
74102;SDS011;62853;46.166;3.640;2024-01-30T02:02:30;6.13;;;5.22;;
74102;SDS011;62853;46.166;3.640;2024-01-30T02:04:59;5.38;;;4.10;;
74102;SDS011;62853;46.166;3.640;2024-01-30T02:07:25;5.70;;;4.28;;
74102;SDS011;62853;46.166;3.640;2024-01-30T02:09:52;6.13;;;4.43;;
74102;SDS011;62853;46.166;3.640;2024-01-30T02:12:17;4.38;;;3.97;;
74102;SDS011;62853;46.166;3.640;2024-01-30T02:14:46;5.90;;;4.78;;
74102;SDS011;62853;46.166;3.640;2024-01-30T02:17:12;5.35;;;4.30;;
74102;SDS011;62853;46.166;3.640;2024-01-30T02:19:37;6.40;;;4.65;;
74102;SDS011;62853;46.166;3.640;2024-01-30T02:22:03;6.95;;;4.65;;
74102;SDS011;62853;46.166;3.640;2024-01-30T02:24:29;5.45;;;3.90;;
74102;SDS011;62853;46.166;3.640;2024-01-30T02:26:55;6.13;;;4.38;;
74102;SDS011;62853;46.166;3.640;2024-01-30T02:29:20;5.75;;;4.28;;
74102;SDS011;62853;46.166;3.640;2024-01-30T02:31:46;7.03;;;4.43;;
74102;SDS011;62853;46.166;3.640;2024-01-30T02:34:11;5.35;;;4.07;;
74102;SDS011;62853;46.166;3.640;2024-01-30T02:36:37;4.50;;;3.75;;
74102;SDS011;62853;46.166;3.640;2024-01-30T02:39:02;4.93;;;3.95;;
74102;SDS011;62853;46.166;3.640;2024-01-30T02:41:28;6.03;;;5.43;;
74102;SDS011;62853;46.166;3.640;2024-01-30T02:43:53;5.82;;;5.22;;
74102;SDS011;62853;46.166;3.640;2024-01-30T02:46:19;7.93;;;4.72;;
74102;SDS011;62853;46.166;3.640;2024-01-30T02:48:44;6.78;;;4.30;;
74102;SDS011;62853;46.166;3.640;2024-01-30T02:51:09;4.63;;;4.00;;
74102;SDS011;62853;46.166;3.640;2024-01-30T02:53:35;6.22;;;4.30;;
74102;SDS011;62853;46.166;3.640;2024-01-30T02:56:01;7.03;;;4.65;;
74102;SDS011;62853;46.166;3.640;2024-01-30T02:58:27;5.53;;;4.25;;
74102;SDS011;62853;46.166;3.640;2024-01-30T03:00:53;5.95;;;4.22;;
74102;SDS011;62853;46.166;3.640;2024-01-30T03:03:18;6.10;;;4.38;;
74102;SDS011;62853;46.166;3.640;2024-01-30T03:05:43;7.72;;;4.82;;
74102;SDS011;62853;46.166;3.640;2024-01-30T03:08:09;4.97;;;4.10;;
74102;SDS011;62853;46.166;3.640;2024-01-30T03:10:34;5.97;;;3.90;;
74102;SDS011;62853;46.166;3.640;2024-01-30T03:12:59;4.50;;;3.85;;
74102;SDS011;62853;46.166;3.640;2024-01-30T03:15:25;6.03;;;3.95;;
74102;SDS011;62853;46.166;3.640;2024-01-30T03:17:50;4.72;;;3.90;;
74102;SDS011;62853;46.166;3.640;2024-01-30T03:20:16;5.68;;;3.90;;
74102;SDS011;62853;46.166;3.640;2024-01-30T03:22:41;5.82;;;3.42;;
74102;SDS011;62853;46.166;3.640;2024-01-30T03:25:06;5.13;;;4.00;;
74102;SDS011;62853;46.166;3.640;2024-01-30T03:27:32;5.60;;;4.13;;
74102;SDS011;62853;46.166;3.640;2024-01-30T03:29:57;5.80;;;3.78;;
74102;SDS011;62853;46.166;3.640;2024-01-30T03:32:23;5.88;;;5.20;;
74102;SDS011;62853;46.166;3.640;2024-01-30T03:34:48;5.65;;;5.05;;
74102;SDS011;62853;46.166;3.640;2024-01-30T03:37:14;5.60;;;4.60;;
74102;SDS011;62853;46.166;3.640;2024-01-30T03:39:39;5.07;;;3.90;;
74102;SDS011;62853;46.166;3.640;2024-01-30T03:42:05;5.68;;;3.90;;
74102;SDS011;62853;46.166;3.640;2024-01-30T03:44:30;5.20;;;4.00;;
74102;SDS011;62853;46.166;3.640;2024-01-30T03:46:55;5.05;;;3.78;;
74102;SDS011;62853;46.166;3.640;2024-01-30T03:49:21;5.97;;;3.92;;
74102;SDS011;62853;46.166;3.640;2024-01-30T03:51:46;4.90;;;3.50;;
74102;SDS011;62853;46.166;3.640;2024-01-30T03:54:12;5.95;;;4.25;;
74102;SDS011;62853;46.166;3.640;2024-01-30T03:56:38;5.03;;;3.75;;
74102;SDS011;62853;46.166;3.640;2024-01-30T03:59:03;5.00;;;3.65;;
74102;SDS011;62853;46.166;3.640;2024-01-30T04:01:28;4.97;;;3.88;;
74102;SDS011;62853;46.166;3.640;2024-01-30T04:03:54;5.80;;;3.65;;
74102;SDS011;62853;46.166;3.640;2024-01-30T04:06:19;5.93;;;3.90;;
74102;SDS011;62853;46.166;3.640;2024-01-30T04:08:45;6.32;;;5.43;;
74102;SDS011;62853;46.166;3.640;2024-01-30T04:11:10;5.85;;;4.68;;
74102;SDS011;62853;46.166;3.640;2024-01-30T04:13:35;4.80;;;4.30;;
74102;SDS011;62853;46.166;3.640;2024-01-30T04:16:01;6.30;;;3.83;;
74102;SDS011;62853;46.166;3.640;2024-01-30T04:18:27;4.93;;;3.70;;
74102;SDS011;62853;46.166;3.640;2024-01-30T04:20:53;5.03;;;3.58;;
74102;SDS011;62853;46.166;3.640;2024-01-30T04:23:18;4.65;;;3.72;;
74102;SDS011;62853;46.166;3.640;2024-01-30T04:25:44;5.00;;;3.78;;
74102;SDS011;62853;46.166;3.640;2024-01-30T04:28:09;4.90;;;3.83;;
74102;SDS011;62853;46.166;3.640;2024-01-30T04:30:37;5.30;;;3.45;;
74102;SDS011;62853;46.166;3.640;2024-01-30T04:33:02;5.70;;;3.90;;
74102;SDS011;62853;46.166;3.640;2024-01-30T04:35:28;4.72;;;3.70;;
74102;SDS011;62853;46.166;3.640;2024-01-30T04:37:54;4.80;;;3.80;;
74102;SDS011;62853;46.166;3.640;2024-01-30T04:40:20;5.57;;;4.68;;
74102;SDS011;62853;46.166;3.640;2024-01-30T04:42:46;5.28;;;4.78;;
74102;SDS011;62853;46.166;3.640;2024-01-30T04:45:11;4.72;;;4.22;;
74102;SDS011;62853;46.166;3.640;2024-01-30T04:47:37;4.95;;;3.45;;
74102;SDS011;62853;46.166;3.640;2024-01-30T04:50:04;4.13;;;3.28;;
74102;SDS011;62853;46.166;3.640;2024-01-30T04:52:31;4.78;;;3.47;;
74102;SDS011;62853;46.166;3.640;2024-01-30T04:54:56;6.50;;;3.72;;
74102;SDS011;62853;46.166;3.640;2024-01-30T04:57:22;6.47;;;3.92;;
74102;SDS011;62853;46.166;3.640;2024-01-30T04:59:47;6.43;;;4.13;;
74102;SDS011;62853;46.166;3.640;2024-01-30T05:02:13;6.63;;;3.75;;
74102;SDS011;62853;46.166;3.640;2024-01-30T05:04:38;6.35;;;3.70;;
74102;SDS011;62853;46.166;3.640;2024-01-30T05:07:05;5.95;;;5.00;;
74102;SDS011;62853;46.166;3.640;2024-01-30T05:09:30;6.18;;;4.72;;
74102;SDS011;62853;46.166;3.640;2024-01-30T05:11:56;5.22;;;4.60;;
74102;SDS011;62853;46.166;3.640;2024-01-30T05:14:21;5.32;;;3.70;;
74102;SDS011;62853;46.166;3.640;2024-01-30T05:16:47;5.30;;;3.40;;
74102;SDS011;62853;46.166;3.640;2024-01-30T05:19:13;5.15;;;4.10;;
74102;SDS011;62853;46.166;3.640;2024-01-30T05:21:39;5.50;;;3.50;;
74102;SDS011;62853;46.166;3.640;2024-01-30T05:24:05;5.63;;;3.47;;
74102;SDS011;62853;46.166;3.640;2024-01-30T05:26:30;5.00;;;3.50;;
74102;SDS011;62853;46.166;3.640;2024-01-30T05:28:56;5.75;;;4.78;;
74102;SDS011;62853;46.166;3.640;2024-01-30T05:31:22;5.10;;;4.60;;
74102;SDS011;62853;46.166;3.640;2024-01-30T05:33:47;5.78;;;3.80;;
74102;SDS011;62853;46.166;3.640;2024-01-30T05:36:12;7.03;;;3.50;;
74102;SDS011;62853;46.166;3.640;2024-01-30T05:38:38;6.05;;;3.75;;
74102;SDS011;62853;46.166;3.640;2024-01-30T05:41:04;6.72;;;3.47;;
74102;SDS011;62853;46.166;3.640;2024-01-30T05:43:29;4.38;;;3.55;;
74102;SDS011;62853;46.166;3.640;2024-01-30T05:45:54;5.32;;;4.82;;
74102;SDS011;62853;46.166;3.640;2024-01-30T05:48:20;4.97;;;4.43;;
74102;SDS011;62853;46.166;3.640;2024-01-30T05:50:45;5.47;;;4.50;;
74102;SDS011;62853;46.166;3.640;2024-01-30T05:53:11;6.78;;;4.53;;
74102;SDS011;62853;46.166;3.640;2024-01-30T05:55:37;4.68;;;3.50;;
74102;SDS011;62853;46.166;3.640;2024-01-30T05:58:02;4.80;;;3.50;;
74102;SDS011;62853;46.166;3.640;2024-01-30T06:00:28;4.47;;;3.50;;
74102;SDS011;62853;46.166;3.640;2024-01-30T06:02:54;4.90;;;3.72;;
74102;SDS011;62853;46.166;3.640;2024-01-30T06:05:20;5.05;;;3.50;;
74102;SDS011;62853;46.166;3.640;2024-01-30T06:07:45;4.57;;;3.50;;
74102;SDS011;62853;46.166;3.640;2024-01-30T06:10:10;6.28;;;4.88;;
74102;SDS011;62853;46.166;3.640;2024-01-30T06:12:36;5.00;;;4.40;;
74102;SDS011;62853;46.166;3.640;2024-01-30T06:15:02;5.85;;;4.15;;
74102;SDS011;62853;46.166;3.640;2024-01-30T06:17:27;4.90;;;3.40;;
74102;SDS011;62853;46.166;3.640;2024-01-30T06:19:53;5.00;;;3.63;;
74102;SDS011;62853;46.166;3.640;2024-01-30T06:22:19;5.50;;;3.78;;
74102;SDS011;62853;46.166;3.640;2024-01-30T06:24:44;5.65;;;3.92;;
74102;SDS011;62853;46.166;3.640;2024-01-30T06:27:10;5.65;;;4.93;;
74102;SDS011;62853;46.166;3.640;2024-01-30T06:29:36;4.97;;;4.50;;
74102;SDS011;62853;46.166;3.640;2024-01-30T06:32:01;4.43;;;3.70;;
74102;SDS011;62853;46.166;3.640;2024-01-30T06:34:26;4.47;;;3.40;;
74102;SDS011;62853;46.166;3.640;2024-01-30T06:36:52;5.25;;;3.13;;
74102;SDS011;62853;46.166;3.640;2024-01-30T06:39:17;4.63;;;3.55;;
74102;SDS011;62853;46.166;3.640;2024-01-30T06:41:43;4.82;;;3.58;;
74102;SDS011;62853;46.166;3.640;2024-01-30T06:44:08;5.53;;;4.72;;
74102;SDS011;62853;46.166;3.640;2024-01-30T06:46:34;4.78;;;4.28;;
74102;SDS011;62853;46.166;3.640;2024-01-30T06:49:00;5.45;;;3.78;;
74102;SDS011;62853;46.166;3.640;2024-01-30T06:51:26;5.20;;;3.50;;
74102;SDS011;62853;46.166;3.640;2024-01-30T06:53:51;5.10;;;3.35;;
74102;SDS011;62853;46.166;3.640;2024-01-30T06:56:16;3.70;;;3.22;;
74102;SDS011;62853;46.166;3.640;2024-01-30T06:58:46;5.13;;;4.32;;
74102;SDS011;62853;46.166;3.640;2024-01-30T07:01:17;6.25;;;5.10;;
74102;SDS011;62853;46.166;3.640;2024-01-30T07:03:42;4.35;;;3.83;;
74102;SDS011;62853;46.166;3.640;2024-01-30T07:06:08;6.00;;;3.70;;
74102;SDS011;62853;46.166;3.640;2024-01-30T07:08:35;6.18;;;3.40;;
74102;SDS011;62853;46.166;3.640;2024-01-30T07:11:02;5.38;;;3.53;;
74102;SDS011;62853;46.166;3.640;2024-01-30T07:13:27;4.25;;;3.20;;
74102;SDS011;62853;46.166;3.640;2024-01-30T07:15:53;5.30;;;4.47;;
74102;SDS011;62853;46.166;3.640;2024-01-30T07:18:19;5.50;;;4.00;;
74102;SDS011;62853;46.166;3.640;2024-01-30T07:20:44;6.22;;;3.88;;
74102;SDS011;62853;46.166;3.640;2024-01-30T07:23:14;5.60;;;3.38;;
74102;SDS011;62853;46.166;3.640;2024-01-30T07:25:42;4.75;;;3.28;;
74102;SDS011;62853;46.166;3.640;2024-01-30T07:28:08;6.55;;;3.78;;
74102;SDS011;62853;46.166;3.640;2024-01-30T07:30:37;4.80;;;3.40;;
74102;SDS011;62853;46.166;3.640;2024-01-30T07:33:03;6.40;;;4.50;;
74102;SDS011;62853;46.166;3.640;2024-01-30T07:35:28;5.50;;;4.70;;
74102;SDS011;62853;46.166;3.640;2024-01-30T07:37:54;4.65;;;3.50;;
74102;SDS011;62853;46.166;3.640;2024-01-30T07:40:19;4.97;;;3.10;;
74102;SDS011;62853;46.166;3.640;2024-01-30T07:42:45;5.03;;;3.42;;
74102;SDS011;62853;46.166;3.640;2024-01-30T07:45:10;4.65;;;3.20;;
74102;SDS011;62853;46.166;3.640;2024-01-30T07:47:35;4.43;;;3.38;;
74102;SDS011;62853;46.166;3.640;2024-01-30T07:50:01;4.43;;;3.42;;
74102;SDS011;62853;46.166;3.640;2024-01-30T07:52:26;5.40;;;4.47;;
74102;SDS011;62853;46.166;3.640;2024-01-30T07:54:52;5.35;;;4.28;;
74102;SDS011;62853;46.166;3.640;2024-01-30T07:57:17;5.15;;;3.53;;
74102;SDS011;62853;46.166;3.640;2024-01-30T07:59:43;4.10;;;3.05;;
74102;SDS011;62853;46.166;3.640;2024-01-30T08:02:09;3.40;;;3.08;;
74102;SDS011;62853;46.166;3.640;2024-01-30T08:04:35;5.55;;;3.38;;
74102;SDS011;62853;46.166;3.640;2024-01-30T08:07:00;4.70;;;3.20;;
74102;SDS011;62853;46.166;3.640;2024-01-30T08:09:25;4.15;;;3.40;;
74102;SDS011;62853;46.166;3.640;2024-01-30T08:11:51;4.18;;;3.50;;
74102;SDS011;62853;46.166;3.640;2024-01-30T08:14:16;4.43;;;3.25;;
74102;SDS011;62853;46.166;3.640;2024-01-30T08:16:41;4.97;;;4.47;;
74102;SDS011;62853;46.166;3.640;2024-01-30T08:19:07;4.45;;;4.00;;
74102;SDS011;62853;46.166;3.640;2024-01-30T08:21:32;5.50;;;3.70;;
74102;SDS011;62853;46.166;3.640;2024-01-30T08:24:02;5.75;;;3.65;;
74102;SDS011;62853;46.166;3.640;2024-01-30T08:26:28;6.57;;;3.92;;
74102;SDS011;62853;46.166;3.640;2024-01-30T08:28:54;6.25;;;3.42;;
74102;SDS011;62853;46.166;3.640;2024-01-30T08:31:19;4.75;;;3.53;;
74102;SDS011;62853;46.166;3.640;2024-01-30T08:33:44;4.28;;;3.08;;
74102;SDS011;62853;46.166;3.640;2024-01-30T08:36:10;5.72;;;3.25;;
74102;SDS011;62853;46.166;3.640;2024-01-30T08:38:35;5.85;;;3.65;;
74102;SDS011;62853;46.166;3.640;2024-01-30T08:41:00;6.30;;;3.90;;
74102;SDS011;62853;46.166;3.640;2024-01-30T08:43:26;6.38;;;4.50;;
74102;SDS011;62853;46.166;3.640;2024-01-30T08:45:51;5.28;;;4.57;;
74102;SDS011;62853;46.166;3.640;2024-01-30T08:48:16;4.90;;;3.90;;
74102;SDS011;62853;46.166;3.640;2024-01-30T08:50:42;4.65;;;3.28;;
74102;SDS011;62853;46.166;3.640;2024-01-30T08:53:08;5.57;;;3.58;;
74102;SDS011;62853;46.166;3.640;2024-01-30T08:55:33;5.95;;;3.83;;
74102;SDS011;62853;46.166;3.640;2024-01-30T08:57:59;6.15;;;3.80;;
74102;SDS011;62853;46.166;3.640;2024-01-30T09:00:24;5.90;;;3.65;;
74102;SDS011;62853;46.166;3.640;2024-01-30T09:02:50;5.72;;;3.53;;
74102;SDS011;62853;46.166;3.640;2024-01-30T09:05:15;4.70;;;3.28;;
74102;SDS011;62853;46.166;3.640;2024-01-30T09:07:41;5.07;;;3.70;;
74102;SDS011;62853;46.166;3.640;2024-01-30T09:10:06;5.45;;;3.60;;
74102;SDS011;62853;46.166;3.640;2024-01-30T09:12:32;6.68;;;3.45;;
74102;SDS011;62853;46.166;3.640;2024-01-30T09:14:57;6.72;;;5.10;;
74102;SDS011;62853;46.166;3.640;2024-01-30T09:17:23;5.07;;;4.28;;
74102;SDS011;62853;46.166;3.640;2024-01-30T09:19:48;5.13;;;4.18;;
74102;SDS011;62853;46.166;3.640;2024-01-30T09:22:14;5.63;;;3.72;;
74102;SDS011;62853;46.166;3.640;2024-01-30T09:24:40;6.20;;;4.00;;
74102;SDS011;62853;46.166;3.640;2024-01-30T09:27:05;4.75;;;3.50;;
74102;SDS011;62853;46.166;3.640;2024-01-30T09:29:31;6.10;;;4.20;;
74102;SDS011;62853;46.166;3.640;2024-01-30T09:31:59;5.03;;;3.53;;
74102;SDS011;62853;46.166;3.640;2024-01-30T09:34:24;5.25;;;4.32;;
74102;SDS011;62853;46.166;3.640;2024-01-30T09:36:50;5.85;;;3.80;;
74102;SDS011;62853;46.166;3.640;2024-01-30T09:39:15;6.20;;;3.85;;
74102;SDS011;62853;46.166;3.640;2024-01-30T09:41:54;6.07;;;3.85;;
74102;SDS011;62853;46.166;3.640;2024-01-30T09:44:26;6.22;;;5.25;;
74102;SDS011;62853;46.166;3.640;2024-01-30T09:46:54;6.15;;;5.18;;
74102;SDS011;62853;46.166;3.640;2024-01-30T09:49:20;5.25;;;4.30;;
74102;SDS011;62853;46.166;3.640;2024-01-30T09:51:48;6.68;;;3.67;;
74102;SDS011;62853;46.166;3.640;2024-01-30T09:54:15;6.85;;;4.00;;
74102;SDS011;62853;46.166;3.640;2024-01-30T09:56:41;5.25;;;3.78;;
74102;SDS011;62853;46.166;3.640;2024-01-30T09:59:06;5.38;;;3.80;;
74102;SDS011;62853;46.166;3.640;2024-01-30T10:01:32;7.38;;;4.32;;
74102;SDS011;62853;46.166;3.640;2024-01-30T10:04:00;6.82;;;5.18;;
74102;SDS011;62853;46.166;3.640;2024-01-30T10:06:26;5.65;;;3.72;;
74102;SDS011;62853;46.166;3.640;2024-01-30T10:08:52;6.07;;;4.07;;
74102;SDS011;62853;46.166;3.640;2024-01-30T10:11:17;6.25;;;3.97;;
74102;SDS011;62853;46.166;3.640;2024-01-30T10:13:42;5.45;;;3.75;;
74102;SDS011;62853;46.166;3.640;2024-01-30T10:16:08;7.13;;;4.10;;
74102;SDS011;62853;46.166;3.640;2024-01-30T10:18:33;7.97;;;4.10;;
74102;SDS011;62853;46.166;3.640;2024-01-30T10:20:59;6.20;;;3.70;;
74102;SDS011;62853;46.166;3.640;2024-01-30T10:23:24;7.82;;;4.22;;
74102;SDS011;62853;46.166;3.640;2024-01-30T10:25:52;6.53;;;3.97;;
74102;SDS011;62853;46.166;3.640;2024-01-30T10:28:18;6.75;;;3.95;;
74102;SDS011;62853;46.166;3.640;2024-01-30T10:30:43;7.85;;;4.20;;
74102;SDS011;62853;46.166;3.640;2024-01-30T10:33:09;7.30;;;5.20;;
74102;SDS011;62853;46.166;3.640;2024-01-30T10:35:34;6.60;;;4.88;;
74102;SDS011;62853;46.166;3.640;2024-01-30T10:38:00;6.45;;;4.00;;
74102;SDS011;62853;46.166;3.640;2024-01-30T10:40:27;8.07;;;4.07;;
74102;SDS011;62853;46.166;3.640;2024-01-30T10:42:53;6.10;;;4.22;;
74102;SDS011;62853;46.166;3.640;2024-01-30T10:45:20;5.82;;;3.95;;
74102;SDS011;62853;46.166;3.640;2024-01-30T10:47:50;6.93;;;4.38;;
74102;SDS011;62853;46.166;3.640;2024-01-30T10:50:17;6.28;;;3.95;;
74102;SDS011;62853;46.166;3.640;2024-01-30T10:52:43;5.95;;;4.10;;
74102;SDS011;62853;46.166;3.640;2024-01-30T10:55:11;7.97;;;5.88;;
74102;SDS011;62853;46.166;3.640;2024-01-30T10:57:37;7.53;;;4.80;;
74102;SDS011;62853;46.166;3.640;2024-01-30T11:00:06;6.43;;;4.95;;
74102;SDS011;62853;46.166;3.640;2024-01-30T11:02:36;4.85;;;3.80;;
74102;SDS011;62853;46.166;3.640;2024-01-30T11:05:04;7.93;;;4.20;;
74102;SDS011;62853;46.166;3.640;2024-01-30T11:07:30;7.50;;;4.13;;
74102;SDS011;62853;46.166;3.640;2024-01-30T11:12:24;6.93;;;4.43;;
74102;SDS011;62853;46.166;3.640;2024-01-30T11:15:37;5.07;;;3.90;;
74102;SDS011;62853;46.166;3.640;2024-01-30T11:17:49;6.80;;;4.07;;
74102;SDS011;62853;46.166;3.640;2024-01-30T11:20:18;7.03;;;3.90;;
74102;SDS011;62853;46.166;3.640;2024-01-30T11:22:51;6.72;;;4.10;;
74102;SDS011;62853;46.166;3.640;2024-01-30T11:25:19;5.85;;;4.20;;
74102;SDS011;62853;46.166;3.640;2024-01-30T11:27:45;7.22;;;5.50;;
74102;SDS011;62853;46.166;3.640;2024-01-30T11:30:22;7.75;;;5.38;;
74102;SDS011;62853;46.166;3.640;2024-01-30T11:32:58;8.07;;;5.53;;
74102;SDS011;62853;46.166;3.640;2024-01-30T11:35:34;6.95;;;4.30;;
74102;SDS011;62853;46.166;3.640;2024-01-30T11:38:01;5.80;;;4.22;;
74102;SDS011;62853;46.166;3.640;2024-01-30T11:40:28;9.48;;;4.63;;
74102;SDS011;62853;46.166;3.640;2024-01-30T11:42:55;8.85;;;4.38;;
74102;SDS011;62853;46.166;3.640;2024-01-30T11:45:21;6.07;;;4.57;;
74102;SDS011;62853;46.166;3.640;2024-01-30T11:47:46;7.00;;;4.22;;
74102;SDS011;62853;46.166;3.640;2024-01-30T11:50:12;7.68;;;4.35;;
74102;SDS011;62853;46.166;3.640;2024-01-30T11:52:38;7.10;;;5.60;;
74102;SDS011;62853;46.166;3.640;2024-01-30T11:55:04;6.97;;;5.28;;
74102;SDS011;62853;46.166;3.640;2024-01-30T11:57:30;6.50;;;5.18;;
74102;SDS011;62853;46.166;3.640;2024-01-30T11:59:55;5.78;;;3.70;;
74102;SDS011;62853;46.166;3.640;2024-01-30T12:02:21;6.78;;;3.70;;
74102;SDS011;62853;46.166;3.640;2024-01-30T12:04:47;6.20;;;3.80;;
74102;SDS011;62853;46.166;3.640;2024-01-30T12:07:12;6.78;;;3.90;;
74102;SDS011;62853;46.166;3.640;2024-01-30T12:09:41;7.85;;;3.78;;
74102;SDS011;62853;46.166;3.640;2024-01-30T12:12:06;6.00;;;3.95;;
74102;SDS011;62853;46.166;3.640;2024-01-30T12:14:36;8.45;;;5.07;;
74102;SDS011;62853;46.166;3.640;2024-01-30T12:17:04;5.88;;;4.80;;
74102;SDS011;62853;46.166;3.640;2024-01-30T12:19:29;9.52;;;5.30;;
74102;SDS011;62853;46.166;3.640;2024-01-30T12:21:56;9.75;;;4.22;;
74102;SDS011;62853;46.166;3.640;2024-01-30T12:24:23;7.40;;;4.40;;
74102;SDS011;62853;46.166;3.640;2024-01-30T12:26:50;5.22;;;3.88;;
74102;SDS011;62853;46.166;3.640;2024-01-30T12:29:15;6.25;;;3.78;;
74102;SDS011;62853;46.166;3.640;2024-01-30T12:31:41;6.25;;;4.10;;
74102;SDS011;62853;46.166;3.640;2024-01-30T12:34:07;8.27;;;4.13;;
74102;SDS011;62853;46.166;3.640;2024-01-30T12:36:33;8.63;;;5.00;;
74102;SDS011;62853;46.166;3.640;2024-01-30T12:38:59;7.90;;;4.75;;
74102;SDS011;62853;46.166;3.640;2024-01-30T12:41:25;7.20;;;3.55;;
74102;SDS011;62853;46.166;3.640;2024-01-30T12:43:54;4.88;;;3.10;;
74102;SDS011;62853;46.166;3.640;2024-01-30T12:46:24;5.95;;;3.25;;
74102;SDS011;62853;46.166;3.640;2024-01-30T12:48:52;6.57;;;3.20;;
74102;SDS011;62853;46.166;3.640;2024-01-30T12:51:18;7.22;;;3.85;;
74102;SDS011;62853;46.166;3.640;2024-01-30T12:53:43;4.68;;;3.35;;
74102;SDS011;62853;46.166;3.640;2024-01-30T12:56:09;5.53;;;2.60;;
74102;SDS011;62853;46.166;3.640;2024-01-30T12:58:34;4.30;;;2.05;;
74102;SDS011;62853;46.166;3.640;2024-01-30T13:00:59;4.53;;;2.17;;
74102;SDS011;62853;46.166;3.640;2024-01-30T13:03:25;5.13;;;2.10;;
74102;SDS011;62853;46.166;3.640;2024-01-30T13:05:50;4.68;;;1.77;;
74102;SDS011;62853;46.166;3.640;2024-01-30T13:08:16;6.50;;;2.40;;
74102;SDS011;62853;46.166;3.640;2024-01-30T13:10:41;4.07;;;2.10;;
74102;SDS011;62853;46.166;3.640;2024-01-30T13:13:06;3.63;;;1.52;;
74102;SDS011;62853;46.166;3.640;2024-01-30T13:15:33;2.25;;;1.30;;
74102;SDS011;62853;46.166;3.640;2024-01-30T13:17:58;2.20;;;1.20;;
74102;SDS011;62853;46.166;3.640;2024-01-30T13:20:23;3.85;;;1.30;;
74102;SDS011;62853;46.166;3.640;2024-01-30T13:22:49;2.35;;;1.10;;
74102;SDS011;62853;46.166;3.640;2024-01-30T13:25:15;3.65;;;1.58;;
74102;SDS011;62853;46.166;3.640;2024-01-30T13:27:40;3.45;;;1.50;;
74102;SDS011;62853;46.166;3.640;2024-01-30T13:30:06;3.22;;;1.15;;
74102;SDS011;62853;46.166;3.640;2024-01-30T13:32:34;2.78;;;1.02;;
74102;SDS011;62853;46.166;3.640;2024-01-30T13:34:59;2.42;;;0.93;;
74102;SDS011;62853;46.166;3.640;2024-01-30T13:37:25;1.85;;;0.80;;
74102;SDS011;62853;46.166;3.640;2024-01-30T13:39:50;3.25;;;1.30;;
74102;SDS011;62853;46.166;3.640;2024-01-30T13:42:15;2.20;;;1.17;;
74102;SDS011;62853;46.166;3.640;2024-01-30T13:44:41;2.55;;;1.02;;
74102;SDS011;62853;46.166;3.640;2024-01-30T13:47:08;1.77;;;0.80;;
74102;SDS011;62853;46.166;3.640;2024-01-30T13:49:34;2.05;;;0.80;;
74102;SDS011;62853;46.166;3.640;2024-01-30T13:51:59;3.10;;;1.20;;
74102;SDS011;62853;46.166;3.640;2024-01-30T13:54:25;2.28;;;1.05;;
74102;SDS011;62853;46.166;3.640;2024-01-30T13:56:50;2.20;;;0.90;;
74102;SDS011;62853;46.166;3.640;2024-01-30T13:59:15;3.25;;;0.60;;
74102;SDS011;62853;46.166;3.640;2024-01-30T14:01:47;2.55;;;0.88;;
74102;SDS011;62853;46.166;3.640;2024-01-30T14:04:13;2.53;;;0.82;;
74102;SDS011;62853;46.166;3.640;2024-01-30T14:06:39;1.52;;;0.73;;
74102;SDS011;62853;46.166;3.640;2024-01-30T14:09:05;1.23;;;0.73;;
74102;SDS011;62853;46.166;3.640;2024-01-30T14:11:31;5.40;;;1.15;;
74102;SDS011;62853;46.166;3.640;2024-01-30T14:13:56;2.90;;;0.70;;
74102;SDS011;62853;46.166;3.640;2024-01-30T14:16:22;1.45;;;0.73;;
74102;SDS011;62853;46.166;3.640;2024-01-30T14:18:49;1.35;;;0.68;;
74102;SDS011;62853;46.166;3.640;2024-01-30T14:21:14;2.25;;;0.60;;
74102;SDS011;62853;46.166;3.640;2024-01-30T14:23:40;5.22;;;0.68;;
74102;SDS011;62853;46.166;3.640;2024-01-30T14:26:05;1.63;;;0.90;;
74102;SDS011;62853;46.166;3.640;2024-01-30T14:28:31;1.95;;;0.77;;
74102;SDS011;62853;46.166;3.640;2024-01-30T14:30:56;3.10;;;0.70;;
74102;SDS011;62853;46.166;3.640;2024-01-30T14:33:22;1.90;;;0.60;;
74102;SDS011;62853;46.166;3.640;2024-01-30T14:35:47;2.13;;;0.60;;
74102;SDS011;62853;46.166;3.640;2024-01-30T14:38:13;1.63;;;0.60;;
74102;SDS011;62853;46.166;3.640;2024-01-30T14:40:38;2.28;;;0.52;;
74102;SDS011;62853;46.166;3.640;2024-01-30T14:43:04;1.98;;;0.80;;